sensor_id;sensor_type;location;lat;lon;timestamp;temperature;humidity
66710;DHT22;53624;0.000;0.000;2022-10-16T00:00:03;19.30;99.90
66710;DHT22;53624;0.000;0.000;2022-10-16T00:02:32;19.20;99.90
66710;DHT22;53624;0.000;0.000;2022-10-16T00:04:59;19.20;99.90
66710;DHT22;53624;0.000;0.000;2022-10-16T00:07:27;19.20;99.90
66710;DHT22;53624;0.000;0.000;2022-10-16T00:09:54;19.20;99.90
66710;DHT22;53624;0.000;0.000;2022-10-16T00:12:22;19.20;99.90
66710;DHT22;53624;0.000;0.000;2022-10-16T00:14:49;19.20;99.90
66710;DHT22;53624;0.000;0.000;2022-10-16T00:17:16;19.20;99.90
66710;DHT22;53624;0.000;0.000;2022-10-16T00:19:45;19.10;99.90
66710;DHT22;53624;0.000;0.000;2022-10-16T00:22:13;19.10;99.90
66710;DHT22;53624;0.000;0.000;2022-10-16T00:24:40;19.10;99.90
66710;DHT22;53624;0.000;0.000;2022-10-16T00:27:08;19.10;99.90
66710;DHT22;53624;0.000;0.000;2022-10-16T00:29:35;19.10;99.90
66710;DHT22;53624;0.000;0.000;2022-10-16T00:32:02;19.00;99.90
66710;DHT22;53624;0.000;0.000;2022-10-16T00:34:30;19.00;99.90
66710;DHT22;53624;0.000;0.000;2022-10-16T00:36:59;19.00;99.90
66710;DHT22;53624;0.000;0.000;2022-10-16T00:39:26;19.00;99.90
66710;DHT22;53624;0.000;0.000;2022-10-16T00:41:54;19.00;99.90
66710;DHT22;53624;0.000;0.000;2022-10-16T00:47:08;19.00;99.90
66710;DHT22;53624;0.000;0.000;2022-10-16T00:49:36;19.00;99.90
66710;DHT22;53624;0.000;0.000;2022-10-16T00:52:05;19.00;99.90
66710;DHT22;53624;0.000;0.000;2022-10-16T00:54:32;18.90;99.90
66710;DHT22;53624;0.000;0.000;2022-10-16T00:57:01;18.90;99.90
66710;DHT22;53624;0.000;0.000;2022-10-16T00:59:29;18.90;99.90
66710;DHT22;53624;0.000;0.000;2022-10-16T01:01:57;18.90;99.90
66710;DHT22;53624;0.000;0.000;2022-10-16T01:04:25;18.90;99.90
66710;DHT22;53624;0.000;0.000;2022-10-16T01:06:55;18.90;99.90
66710;DHT22;53624;0.000;0.000;2022-10-16T01:09:26;18.90;99.90
66710;DHT22;53624;0.000;0.000;2022-10-16T01:11:57;18.80;99.90
66710;DHT22;53624;0.000;0.000;2022-10-16T01:14:31;18.80;99.90
66710;DHT22;53624;0.000;0.000;2022-10-16T01:17:01;18.80;99.90
66710;DHT22;53624;0.000;0.000;2022-10-16T01:19:37;18.80;99.90
66710;DHT22;53624;0.000;0.000;2022-10-16T01:22:08;18.80;99.90
66710;DHT22;53624;0.000;0.000;2022-10-16T01:24:39;18.80;99.90
66710;DHT22;53624;0.000;0.000;2022-10-16T01:27:12;18.80;99.90
66710;DHT22;53624;0.000;0.000;2022-10-16T01:29:42;18.80;99.90
66710;DHT22;53624;0.000;0.000;2022-10-16T01:32:15;18.80;99.90
66710;DHT22;53624;0.000;0.000;2022-10-16T01:34:45;18.80;99.90
66710;DHT22;53624;0.000;0.000;2022-10-16T01:37:15;18.80;99.90
66710;DHT22;53624;0.000;0.000;2022-10-16T01:39:45;18.80;99.90
66710;DHT22;53624;0.000;0.000;2022-10-16T01:42:15;18.80;99.90
66710;DHT22;53624;0.000;0.000;2022-10-16T01:44:44;18.80;99.90
66710;DHT22;53624;0.000;0.000;2022-10-16T01:47:13;18.80;99.90
66710;DHT22;53624;0.000;0.000;2022-10-16T01:49:41;18.80;99.90
66710;DHT22;53624;0.000;0.000;2022-10-16T01:52:11;18.70;99.90
66710;DHT22;53624;0.000;0.000;2022-10-16T01:54:40;18.80;99.90
66710;DHT22;53624;0.000;0.000;2022-10-16T01:57:09;18.80;99.90
66710;DHT22;53624;0.000;0.000;2022-10-16T01:59:39;18.70;99.90
66710;DHT22;53624;0.000;0.000;2022-10-16T02:02:08;18.70;99.90
66710;DHT22;53624;0.000;0.000;2022-10-16T02:04:37;18.70;99.90
66710;DHT22;53624;0.000;0.000;2022-10-16T02:07:05;18.80;99.90
66710;DHT22;53624;0.000;0.000;2022-10-16T02:09:34;18.70;99.90
66710;DHT22;53624;0.000;0.000;2022-10-16T02:12:03;18.70;99.90
66710;DHT22;53624;0.000;0.000;2022-10-16T02:14:33;18.70;99.90
66710;DHT22;53624;0.000;0.000;2022-10-16T02:17:09;18.70;99.90
66710;DHT22;53624;0.000;0.000;2022-10-16T02:19:37;18.70;99.90
66710;DHT22;53624;0.000;0.000;2022-10-16T02:22:04;18.70;99.90
66710;DHT22;53624;0.000;0.000;2022-10-16T02:24:33;18.70;99.90
66710;DHT22;53624;0.000;0.000;2022-10-16T02:27:03;18.70;99.90
66710;DHT22;53624;0.000;0.000;2022-10-16T02:29:34;18.70;99.90
66710;DHT22;53624;0.000;0.000;2022-10-16T02:32:05;18.70;99.90
66710;DHT22;53624;0.000;0.000;2022-10-16T02:34:34;18.70;99.90
66710;DHT22;53624;0.000;0.000;2022-10-16T02:37:02;18.70;99.90
66710;DHT22;53624;0.000;0.000;2022-10-16T02:39:31;18.70;99.90
66710;DHT22;53624;0.000;0.000;2022-10-16T02:41:58;18.70;99.90
66710;DHT22;53624;0.000;0.000;2022-10-16T02:44:26;18.70;99.90
66710;DHT22;53624;0.000;0.000;2022-10-16T02:46:53;18.70;99.90
66710;DHT22;53624;0.000;0.000;2022-10-16T02:49:22;18.70;99.90
66710;DHT22;53624;0.000;0.000;2022-10-16T02:51:50;18.70;99.90
66710;DHT22;53624;0.000;0.000;2022-10-16T02:54:17;18.70;99.90
66710;DHT22;53624;0.000;0.000;2022-10-16T02:56:44;18.70;99.90
66710;DHT22;53624;0.000;0.000;2022-10-16T02:59:12;18.60;99.90
66710;DHT22;53624;0.000;0.000;2022-10-16T03:01:39;18.60;99.90
66710;DHT22;53624;0.000;0.000;2022-10-16T03:04:07;18.70;99.90
66710;DHT22;53624;0.000;0.000;2022-10-16T03:06:38;18.60;99.90
66710;DHT22;53624;0.000;0.000;2022-10-16T03:09:05;18.60;99.90
66710;DHT22;53624;0.000;0.000;2022-10-16T03:11:32;18.60;99.90
66710;DHT22;53624;0.000;0.000;2022-10-16T03:14:00;18.60;99.90
66710;DHT22;53624;0.000;0.000;2022-10-16T03:16:27;18.60;99.90
66710;DHT22;53624;0.000;0.000;2022-10-16T03:18:55;18.60;99.90
66710;DHT22;53624;0.000;0.000;2022-10-16T03:21:22;18.60;99.90
66710;DHT22;53624;0.000;0.000;2022-10-16T03:23:51;18.60;99.90
66710;DHT22;53624;0.000;0.000;2022-10-16T03:26:18;18.60;99.90
66710;DHT22;53624;0.000;0.000;2022-10-16T03:28:46;18.60;99.90
66710;DHT22;53624;0.000;0.000;2022-10-16T03:31:13;18.60;99.90
66710;DHT22;53624;0.000;0.000;2022-10-16T03:33:41;18.50;99.90
66710;DHT22;53624;0.000;0.000;2022-10-16T03:36:08;18.50;99.90
66710;DHT22;53624;0.000;0.000;2022-10-16T03:38:35;18.50;99.90
66710;DHT22;53624;0.000;0.000;2022-10-16T03:41:04;18.50;99.90
66710;DHT22;53624;0.000;0.000;2022-10-16T03:43:33;18.50;99.90
66710;DHT22;53624;0.000;0.000;2022-10-16T03:46:01;18.50;99.90
66710;DHT22;53624;0.000;0.000;2022-10-16T03:48:28;18.50;99.90
66710;DHT22;53624;0.000;0.000;2022-10-16T03:50:56;18.50;99.90
66710;DHT22;53624;0.000;0.000;2022-10-16T03:53:23;18.50;99.90
66710;DHT22;53624;0.000;0.000;2022-10-16T03:55:50;18.50;99.90
66710;DHT22;53624;0.000;0.000;2022-10-16T03:58:19;18.40;99.90
66710;DHT22;53624;0.000;0.000;2022-10-16T04:00:47;18.50;99.90
66710;DHT22;53624;0.000;0.000;2022-10-16T04:03:14;18.40;99.90
66710;DHT22;53624;0.000;0.000;2022-10-16T04:05:42;18.40;99.90
66710;DHT22;53624;0.000;0.000;2022-10-16T04:08:09;18.40;99.90
66710;DHT22;53624;0.000;0.000;2022-10-16T04:10:36;18.40;99.90
66710;DHT22;53624;0.000;0.000;2022-10-16T04:13:04;18.40;99.90
66710;DHT22;53624;0.000;0.000;2022-10-16T04:15:33;18.40;99.90
66710;DHT22;53624;0.000;0.000;2022-10-16T04:18:00;18.40;99.90
66710;DHT22;53624;0.000;0.000;2022-10-16T04:20:28;18.40;99.90
66710;DHT22;53624;0.000;0.000;2022-10-16T04:22:56;18.40;99.90
66710;DHT22;53624;0.000;0.000;2022-10-16T04:25:23;18.40;99.90
66710;DHT22;53624;0.000;0.000;2022-10-16T04:27:52;18.40;99.90
66710;DHT22;53624;0.000;0.000;2022-10-16T04:30:19;18.40;99.90
66710;DHT22;53624;0.000;0.000;2022-10-16T04:32:49;18.40;99.90
66710;DHT22;53624;0.000;0.000;2022-10-16T04:35:16;18.30;99.90
66710;DHT22;53624;0.000;0.000;2022-10-16T04:37:44;18.30;99.90
66710;DHT22;53624;0.000;0.000;2022-10-16T04:40:11;18.30;99.90
66710;DHT22;53624;0.000;0.000;2022-10-16T04:42:39;18.30;99.90
66710;DHT22;53624;0.000;0.000;2022-10-16T04:45:07;18.30;99.90
66710;DHT22;53624;0.000;0.000;2022-10-16T04:47:34;18.30;99.90
66710;DHT22;53624;0.000;0.000;2022-10-16T04:50:04;18.30;99.90
66710;DHT22;53624;0.000;0.000;2022-10-16T04:52:32;18.30;99.90
66710;DHT22;53624;0.000;0.000;2022-10-16T04:54:59;18.30;99.90
66710;DHT22;53624;0.000;0.000;2022-10-16T04:57:29;18.30;99.90
66710;DHT22;53624;0.000;0.000;2022-10-16T04:59:56;18.30;99.90
66710;DHT22;53624;0.000;0.000;2022-10-16T05:02:24;18.30;99.90
66710;DHT22;53624;0.000;0.000;2022-10-16T05:04:51;18.30;99.90
66710;DHT22;53624;0.000;0.000;2022-10-16T05:07:20;18.30;99.90
66710;DHT22;53624;0.000;0.000;2022-10-16T05:09:48;18.20;99.90
66710;DHT22;53624;0.000;0.000;2022-10-16T05:12:15;18.20;99.90
66710;DHT22;53624;0.000;0.000;2022-10-16T05:14:42;18.20;99.90
66710;DHT22;53624;0.000;0.000;2022-10-16T05:17:10;18.20;99.90
66710;DHT22;53624;0.000;0.000;2022-10-16T05:19:37;18.20;99.90
66710;DHT22;53624;0.000;0.000;2022-10-16T05:22:05;18.20;99.90
66710;DHT22;53624;0.000;0.000;2022-10-16T05:24:34;18.20;99.90
66710;DHT22;53624;0.000;0.000;2022-10-16T05:27:01;18.20;99.90
66710;DHT22;53624;0.000;0.000;2022-10-16T05:29:29;18.20;99.90
66710;DHT22;53624;0.000;0.000;2022-10-16T05:31:56;18.20;99.90
66710;DHT22;53624;0.000;0.000;2022-10-16T05:34:23;18.20;99.90
66710;DHT22;53624;0.000;0.000;2022-10-16T05:36:51;18.20;99.90
66710;DHT22;53624;0.000;0.000;2022-10-16T05:39:18;18.20;99.90
66710;DHT22;53624;0.000;0.000;2022-10-16T05:41:49;18.20;99.90
66710;DHT22;53624;0.000;0.000;2022-10-16T05:44:16;18.10;99.90
66710;DHT22;53624;0.000;0.000;2022-10-16T05:46:45;18.10;99.90
66710;DHT22;53624;0.000;0.000;2022-10-16T05:49:13;18.10;99.90
66710;DHT22;53624;0.000;0.000;2022-10-16T05:51:40;18.10;99.90
66710;DHT22;53624;0.000;0.000;2022-10-16T05:54:08;18.10;99.90
66710;DHT22;53624;0.000;0.000;2022-10-16T05:56:36;18.10;99.90
66710;DHT22;53624;0.000;0.000;2022-10-16T05:59:04;18.10;99.90
66710;DHT22;53624;0.000;0.000;2022-10-16T06:01:32;18.10;99.90
66710;DHT22;53624;0.000;0.000;2022-10-16T06:04:01;18.10;99.90
66710;DHT22;53624;0.000;0.000;2022-10-16T06:06:29;18.10;99.90
66710;DHT22;53624;0.000;0.000;2022-10-16T06:08:56;18.10;99.90
66710;DHT22;53624;0.000;0.000;2022-10-16T06:11:26;18.10;99.90
66710;DHT22;53624;0.000;0.000;2022-10-16T06:13:54;18.10;99.90
66710;DHT22;53624;0.000;0.000;2022-10-16T06:16:24;18.10;99.90
66710;DHT22;53624;0.000;0.000;2022-10-16T06:18:52;18.10;99.90
66710;DHT22;53624;0.000;0.000;2022-10-16T06:21:20;18.10;99.90
66710;DHT22;53624;0.000;0.000;2022-10-16T06:23:48;18.10;99.90
66710;DHT22;53624;0.000;0.000;2022-10-16T06:26:16;18.10;99.90
66710;DHT22;53624;0.000;0.000;2022-10-16T06:28:43;18.10;99.90
66710;DHT22;53624;0.000;0.000;2022-10-16T06:31:11;18.10;99.90
66710;DHT22;53624;0.000;0.000;2022-10-16T06:33:40;18.10;99.90
66710;DHT22;53624;0.000;0.000;2022-10-16T06:36:08;18.10;99.90
66710;DHT22;53624;0.000;0.000;2022-10-16T06:38:36;18.10;99.90
66710;DHT22;53624;0.000;0.000;2022-10-16T06:41:04;18.10;99.90
66710;DHT22;53624;0.000;0.000;2022-10-16T06:43:32;18.10;99.90
66710;DHT22;53624;0.000;0.000;2022-10-16T06:46:01;18.10;99.90
66710;DHT22;53624;0.000;0.000;2022-10-16T06:48:29;18.10;99.90
66710;DHT22;53624;0.000;0.000;2022-10-16T06:50:59;18.10;99.90
66710;DHT22;53624;0.000;0.000;2022-10-16T06:53:28;18.10;99.90
66710;DHT22;53624;0.000;0.000;2022-10-16T06:55:55;18.10;99.90
66710;DHT22;53624;0.000;0.000;2022-10-16T06:58:23;18.10;99.90
66710;DHT22;53624;0.000;0.000;2022-10-16T07:00:55;18.10;99.90
66710;DHT22;53624;0.000;0.000;2022-10-16T07:03:22;18.10;99.90
66710;DHT22;53624;0.000;0.000;2022-10-16T07:05:50;18.10;99.90
66710;DHT22;53624;0.000;0.000;2022-10-16T07:08:19;18.10;99.90
66710;DHT22;53624;0.000;0.000;2022-10-16T07:10:46;18.10;99.90
66710;DHT22;53624;0.000;0.000;2022-10-16T07:13:14;18.10;99.90
66710;DHT22;53624;0.000;0.000;2022-10-16T07:15:41;18.10;99.90
66710;DHT22;53624;0.000;0.000;2022-10-16T07:18:09;18.20;99.90
66710;DHT22;53624;0.000;0.000;2022-10-16T07:20:36;18.20;99.90
66710;DHT22;53624;0.000;0.000;2022-10-16T07:23:04;18.20;99.90
66710;DHT22;53624;0.000;0.000;2022-10-16T07:25:33;18.20;99.90
66710;DHT22;53624;0.000;0.000;2022-10-16T07:28:01;18.50;99.90
66710;DHT22;53624;0.000;0.000;2022-10-16T07:30:28;18.80;99.90
66710;DHT22;53624;0.000;0.000;2022-10-16T07:32:55;19.00;99.90
66710;DHT22;53624;0.000;0.000;2022-10-16T07:35:23;19.20;99.90
66710;DHT22;53624;0.000;0.000;2022-10-16T07:37:50;19.40;99.90
66710;DHT22;53624;0.000;0.000;2022-10-16T07:40:18;19.50;99.90
66710;DHT22;53624;0.000;0.000;2022-10-16T07:42:47;19.70;99.90
66710;DHT22;53624;0.000;0.000;2022-10-16T07:45:15;19.80;99.90
66710;DHT22;53624;0.000;0.000;2022-10-16T07:47:44;20.00;99.90
66710;DHT22;53624;0.000;0.000;2022-10-16T07:50:12;20.10;99.90
66710;DHT22;53624;0.000;0.000;2022-10-16T07:52:39;20.20;99.90
66710;DHT22;53624;0.000;0.000;2022-10-16T07:55:07;20.30;99.90
66710;DHT22;53624;0.000;0.000;2022-10-16T07:57:35;20.40;99.90
66710;DHT22;53624;0.000;0.000;2022-10-16T08:00:04;20.40;99.90
66710;DHT22;53624;0.000;0.000;2022-10-16T08:02:38;20.30;99.90
66710;DHT22;53624;0.000;0.000;2022-10-16T08:05:06;20.30;99.90
66710;DHT22;53624;0.000;0.000;2022-10-16T08:07:33;20.50;99.90
66710;DHT22;53624;0.000;0.000;2022-10-16T08:10:01;20.60;99.90
66710;DHT22;53624;0.000;0.000;2022-10-16T08:12:28;21.00;99.90
66710;DHT22;53624;0.000;0.000;2022-10-16T08:14:56;21.40;99.90
66710;DHT22;53624;0.000;0.000;2022-10-16T08:17:25;21.80;99.40
66710;DHT22;53624;0.000;0.000;2022-10-16T08:19:52;22.10;98.50
66710;DHT22;53624;0.000;0.000;2022-10-16T08:22:20;22.40;97.70
66710;DHT22;53624;0.000;0.000;2022-10-16T08:24:47;22.60;97.00
66710;DHT22;53624;0.000;0.000;2022-10-16T08:27:15;22.70;96.60
66710;DHT22;53624;0.000;0.000;2022-10-16T08:29:43;22.70;96.70
66710;DHT22;53624;0.000;0.000;2022-10-16T08:32:11;22.50;96.70
66710;DHT22;53624;0.000;0.000;2022-10-16T08:34:41;22.20;97.50
66710;DHT22;53624;0.000;0.000;2022-10-16T08:37:08;22.10;98.10
66710;DHT22;53624;0.000;0.000;2022-10-16T08:39:37;22.00;98.30
66710;DHT22;53624;0.000;0.000;2022-10-16T08:42:07;22.00;98.30
66710;DHT22;53624;0.000;0.000;2022-10-16T08:47:35;22.00;98.30
66710;DHT22;53624;0.000;0.000;2022-10-16T08:50:08;22.10;98.10
66710;DHT22;53624;0.000;0.000;2022-10-16T08:52:38;22.20;97.90
66710;DHT22;53624;0.000;0.000;2022-10-16T08:55:08;22.30;97.80
66710;DHT22;53624;0.000;0.000;2022-10-16T08:57:43;22.40;97.60
66710;DHT22;53624;0.000;0.000;2022-10-16T09:00:12;22.50;97.40
66710;DHT22;53624;0.000;0.000;2022-10-16T09:02:40;22.60;97.70
66710;DHT22;53624;0.000;0.000;2022-10-16T09:05:22;22.80;97.80
66710;DHT22;53624;0.000;0.000;2022-10-16T09:07:55;22.90;97.80
66710;DHT22;53624;0.000;0.000;2022-10-16T09:10:29;23.10;97.80
66710;DHT22;53624;0.000;0.000;2022-10-16T09:13:02;23.20;98.20
66710;DHT22;53624;0.000;0.000;2022-10-16T09:15:39;23.10;97.90
66710;DHT22;53624;0.000;0.000;2022-10-16T09:18:10;23.20;97.80
66710;DHT22;53624;0.000;0.000;2022-10-16T09:20:44;23.30;97.80
66710;DHT22;53624;0.000;0.000;2022-10-16T09:23:16;23.30;97.80
66710;DHT22;53624;0.000;0.000;2022-10-16T09:25:44;23.30;97.40
66710;DHT22;53624;0.000;0.000;2022-10-16T09:28:13;23.40;97.50
66710;DHT22;53624;0.000;0.000;2022-10-16T09:30:41;23.40;97.40
66710;DHT22;53624;0.000;0.000;2022-10-16T09:33:09;23.50;97.40
66710;DHT22;53624;0.000;0.000;2022-10-16T09:35:37;23.60;97.40
66710;DHT22;53624;0.000;0.000;2022-10-16T09:38:07;23.70;97.40
66710;DHT22;53624;0.000;0.000;2022-10-16T09:40:36;23.70;97.20
66710;DHT22;53624;0.000;0.000;2022-10-16T09:43:13;23.80;97.30
66710;DHT22;53624;0.000;0.000;2022-10-16T09:45:43;23.90;97.80
66710;DHT22;53624;0.000;0.000;2022-10-16T09:48:20;24.00;97.80
66710;DHT22;53624;0.000;0.000;2022-10-16T09:50:55;24.00;97.60
66710;DHT22;53624;0.000;0.000;2022-10-16T09:53:24;24.00;97.80
66710;DHT22;53624;0.000;0.000;2022-10-16T09:55:53;24.00;97.80
66710;DHT22;53624;0.000;0.000;2022-10-16T09:58:21;24.10;97.90
66710;DHT22;53624;0.000;0.000;2022-10-16T10:00:49;24.20;97.70
66710;DHT22;53624;0.000;0.000;2022-10-16T10:03:23;24.20;97.90
66710;DHT22;53624;0.000;0.000;2022-10-16T10:05:57;24.20;98.30
66710;DHT22;53624;0.000;0.000;2022-10-16T10:08:26;24.30;98.20
66710;DHT22;53624;0.000;0.000;2022-10-16T10:10:53;24.30;98.50
66710;DHT22;53624;0.000;0.000;2022-10-16T10:13:22;24.10;95.80
66710;DHT22;53624;0.000;0.000;2022-10-16T10:15:51;24.20;97.90
66710;DHT22;53624;0.000;0.000;2022-10-16T10:18:20;24.40;97.80
66710;DHT22;53624;0.000;0.000;2022-10-16T10:20:57;24.30;96.30
66710;DHT22;53624;0.000;0.000;2022-10-16T10:23:26;24.40;97.70
66710;DHT22;53624;0.000;0.000;2022-10-16T10:25:55;24.60;97.70
66710;DHT22;53624;0.000;0.000;2022-10-16T10:31:12;24.60;97.00
66710;DHT22;53624;0.000;0.000;2022-10-16T10:33:42;24.90;96.30
66710;DHT22;53624;0.000;0.000;2022-10-16T10:36:14;25.50;96.00
66710;DHT22;53624;0.000;0.000;2022-10-16T10:38:47;26.20;94.80
66710;DHT22;53624;0.000;0.000;2022-10-16T10:41:27;26.80;93.50
66710;DHT22;53624;0.000;0.000;2022-10-16T10:44:01;27.20;92.30
66710;DHT22;53624;0.000;0.000;2022-10-16T10:46:32;27.40;92.10
66710;DHT22;53624;0.000;0.000;2022-10-16T10:49:08;27.10;90.40
66710;DHT22;53624;0.000;0.000;2022-10-16T10:51:39;27.00;91.60
66710;DHT22;53624;0.000;0.000;2022-10-16T10:54:15;26.50;92.90
66710;DHT22;53624;0.000;0.000;2022-10-16T10:56:45;25.90;91.30
66710;DHT22;53624;0.000;0.000;2022-10-16T10:59:19;25.90;93.80
66710;DHT22;53624;0.000;0.000;2022-10-16T11:01:52;25.90;93.60
66710;DHT22;53624;0.000;0.000;2022-10-16T11:07:11;25.60;96.00
66710;DHT22;53624;0.000;0.000;2022-10-16T11:09:43;25.70;95.20
66710;DHT22;53624;0.000;0.000;2022-10-16T11:12:14;26.80;95.00
66710;DHT22;53624;0.000;0.000;2022-10-16T11:14:45;27.60;93.60
66710;DHT22;53624;0.000;0.000;2022-10-16T11:17:13;28.40;92.60
66710;DHT22;53624;0.000;0.000;2022-10-16T11:19:43;28.90;91.60
66710;DHT22;53624;0.000;0.000;2022-10-16T11:22:14;28.90;89.70
66710;DHT22;53624;0.000;0.000;2022-10-16T11:24:46;28.60;88.80
66710;DHT22;53624;0.000;0.000;2022-10-16T11:27:17;27.80;91.30
66710;DHT22;53624;0.000;0.000;2022-10-16T11:29:49;27.10;90.50
66710;DHT22;53624;0.000;0.000;2022-10-16T11:32:20;26.50;90.50
66710;DHT22;53624;0.000;0.000;2022-10-16T11:34:49;26.80;90.40
66710;DHT22;53624;0.000;0.000;2022-10-16T11:37:18;27.10;88.10
66710;DHT22;53624;0.000;0.000;2022-10-16T11:39:48;26.80;89.20
66710;DHT22;53624;0.000;0.000;2022-10-16T11:42:19;26.90;86.30
66710;DHT22;53624;0.000;0.000;2022-10-16T11:44:50;27.20;87.50
66710;DHT22;53624;0.000;0.000;2022-10-16T11:47:30;27.30;87.90
66710;DHT22;53624;0.000;0.000;2022-10-16T11:49:59;27.30;86.30
66710;DHT22;53624;0.000;0.000;2022-10-16T11:52:29;27.20;86.50
66710;DHT22;53624;0.000;0.000;2022-10-16T11:55:01;27.10;86.00
66710;DHT22;53624;0.000;0.000;2022-10-16T11:57:31;27.10;85.80
66710;DHT22;53624;0.000;0.000;2022-10-16T12:00:02;27.10;84.60
66710;DHT22;53624;0.000;0.000;2022-10-16T12:02:40;27.00;85.00
66710;DHT22;53624;0.000;0.000;2022-10-16T12:05:14;27.50;85.20
66710;DHT22;53624;0.000;0.000;2022-10-16T12:07:46;27.90;85.30
66710;DHT22;53624;0.000;0.000;2022-10-16T12:10:21;28.00;86.40
66710;DHT22;53624;0.000;0.000;2022-10-16T12:12:49;27.80;85.50
66710;DHT22;53624;0.000;0.000;2022-10-16T12:15:22;27.70;87.20
66710;DHT22;53624;0.000;0.000;2022-10-16T12:17:50;27.60;86.20
66710;DHT22;53624;0.000;0.000;2022-10-16T12:20:22;27.20;86.80
66710;DHT22;53624;0.000;0.000;2022-10-16T12:22:52;26.90;86.70
66710;DHT22;53624;0.000;0.000;2022-10-16T12:25:24;26.70;87.00
66710;DHT22;53624;0.000;0.000;2022-10-16T12:27:55;26.70;87.70
66710;DHT22;53624;0.000;0.000;2022-10-16T12:30:23;26.50;87.30
66710;DHT22;53624;0.000;0.000;2022-10-16T12:32:55;26.30;84.90
66710;DHT22;53624;0.000;0.000;2022-10-16T12:35:24;26.20;85.90
66710;DHT22;53624;0.000;0.000;2022-10-16T12:37:52;26.30;86.50
66710;DHT22;53624;0.000;0.000;2022-10-16T12:40:26;26.40;84.80
66710;DHT22;53624;0.000;0.000;2022-10-16T12:42:54;26.50;87.20
66710;DHT22;53624;0.000;0.000;2022-10-16T12:45:28;26.30;86.20
66710;DHT22;53624;0.000;0.000;2022-10-16T12:47:57;26.20;85.40
66710;DHT22;53624;0.000;0.000;2022-10-16T12:50:26;26.20;86.10
66710;DHT22;53624;0.000;0.000;2022-10-16T12:52:54;26.20;85.50
66710;DHT22;53624;0.000;0.000;2022-10-16T12:55:22;26.30;86.20
66710;DHT22;53624;0.000;0.000;2022-10-16T12:58:00;26.30;86.50
66710;DHT22;53624;0.000;0.000;2022-10-16T13:00:32;26.20;85.30
66710;DHT22;53624;0.000;0.000;2022-10-16T13:05:50;26.20;86.90
66710;DHT22;53624;0.000;0.000;2022-10-16T13:08:30;26.10;87.00
66710;DHT22;53624;0.000;0.000;2022-10-16T13:11:02;26.00;87.50
66710;DHT22;53624;0.000;0.000;2022-10-16T13:13:44;25.80;88.20
66710;DHT22;53624;0.000;0.000;2022-10-16T13:16:16;25.70;88.90
66710;DHT22;53624;0.000;0.000;2022-10-16T13:18:49;25.70;88.10
66710;DHT22;53624;0.000;0.000;2022-10-16T13:21:24;25.70;87.70
66710;DHT22;53624;0.000;0.000;2022-10-16T13:23:55;25.70;88.10
66710;DHT22;53624;0.000;0.000;2022-10-16T13:26:28;25.60;88.90
66710;DHT22;53624;0.000;0.000;2022-10-16T13:29:00;25.40;89.10
66710;DHT22;53624;0.000;0.000;2022-10-16T13:31:28;25.40;89.50
66710;DHT22;53624;0.000;0.000;2022-10-16T13:33:58;25.20;89.60
66710;DHT22;53624;0.000;0.000;2022-10-16T13:36:34;25.20;89.70
66710;DHT22;53624;0.000;0.000;2022-10-16T13:39:09;25.10;90.20
66710;DHT22;53624;0.000;0.000;2022-10-16T13:41:38;24.90;90.20
66710;DHT22;53624;0.000;0.000;2022-10-16T13:44:09;24.80;90.70
66710;DHT22;53624;0.000;0.000;2022-10-16T13:46:40;24.70;90.60
66710;DHT22;53624;0.000;0.000;2022-10-16T13:49:11;24.60;90.80
66710;DHT22;53624;0.000;0.000;2022-10-16T13:51:39;24.60;91.20
66710;DHT22;53624;0.000;0.000;2022-10-16T13:54:07;24.40;91.20
66710;DHT22;53624;0.000;0.000;2022-10-16T13:56:38;24.30;91.50
66710;DHT22;53624;0.000;0.000;2022-10-16T13:59:06;24.30;91.30
66710;DHT22;53624;0.000;0.000;2022-10-16T14:01:39;24.30;91.90
66710;DHT22;53624;0.000;0.000;2022-10-16T14:04:08;24.20;91.80
66710;DHT22;53624;0.000;0.000;2022-10-16T14:06:36;24.20;91.80
66710;DHT22;53624;0.000;0.000;2022-10-16T14:09:08;24.20;92.10
66710;DHT22;53624;0.000;0.000;2022-10-16T14:11:37;24.20;92.20
66710;DHT22;53624;0.000;0.000;2022-10-16T14:14:09;24.10;91.90
66710;DHT22;53624;0.000;0.000;2022-10-16T14:16:38;24.10;92.10
66710;DHT22;53624;0.000;0.000;2022-10-16T14:19:13;24.00;92.30
66710;DHT22;53624;0.000;0.000;2022-10-16T14:21:42;23.90;92.60
66710;DHT22;53624;0.000;0.000;2022-10-16T14:24:13;23.80;92.70
66710;DHT22;53624;0.000;0.000;2022-10-16T14:26:41;23.80;92.80
66710;DHT22;53624;0.000;0.000;2022-10-16T14:29:10;23.80;92.80
66710;DHT22;53624;0.000;0.000;2022-10-16T14:31:40;23.80;93.10
66710;DHT22;53624;0.000;0.000;2022-10-16T14:34:30;23.70;93.30
66710;DHT22;53624;0.000;0.000;2022-10-16T14:36:59;23.70;93.40
66710;DHT22;53624;0.000;0.000;2022-10-16T14:39:30;23.60;93.50
66710;DHT22;53624;0.000;0.000;2022-10-16T14:41:58;23.60;93.00
66710;DHT22;53624;0.000;0.000;2022-10-16T14:44:27;23.60;93.30
66710;DHT22;53624;0.000;0.000;2022-10-16T14:46:57;23.60;93.20
66710;DHT22;53624;0.000;0.000;2022-10-16T14:49:25;23.50;93.20
66710;DHT22;53624;0.000;0.000;2022-10-16T14:51:54;23.50;93.30
66710;DHT22;53624;0.000;0.000;2022-10-16T14:54:23;23.50;94.20
66710;DHT22;53624;0.000;0.000;2022-10-16T14:56:51;23.50;94.00
66710;DHT22;53624;0.000;0.000;2022-10-16T14:59:21;23.40;94.30
66710;DHT22;53624;0.000;0.000;2022-10-16T15:01:52;23.40;94.60
66710;DHT22;53624;0.000;0.000;2022-10-16T15:04:21;23.30;94.10
66710;DHT22;53624;0.000;0.000;2022-10-16T15:06:49;23.30;94.70
66710;DHT22;53624;0.000;0.000;2022-10-16T15:09:16;23.20;94.40
66710;DHT22;53624;0.000;0.000;2022-10-16T15:11:44;23.10;94.50
66710;DHT22;53624;0.000;0.000;2022-10-16T15:14:12;23.10;94.70
66710;DHT22;53624;0.000;0.000;2022-10-16T15:16:40;23.00;94.50
66710;DHT22;53624;0.000;0.000;2022-10-16T15:19:07;23.00;94.40
66710;DHT22;53624;0.000;0.000;2022-10-16T15:21:36;22.90;94.30
66710;DHT22;53624;0.000;0.000;2022-10-16T15:24:05;22.90;94.40
66710;DHT22;53624;0.000;0.000;2022-10-16T15:26:35;22.90;94.60
66710;DHT22;53624;0.000;0.000;2022-10-16T15:29:03;22.90;95.00
66710;DHT22;53624;0.000;0.000;2022-10-16T15:31:30;23.00;95.30
66710;DHT22;53624;0.000;0.000;2022-10-16T15:33:58;22.90;95.50
66710;DHT22;53624;0.000;0.000;2022-10-16T15:36:30;22.90;95.70
66710;DHT22;53624;0.000;0.000;2022-10-16T15:39:01;22.90;95.80
66710;DHT22;53624;0.000;0.000;2022-10-16T15:41:29;22.90;95.80
66710;DHT22;53624;0.000;0.000;2022-10-16T15:43:57;22.90;96.00
66710;DHT22;53624;0.000;0.000;2022-10-16T15:46:24;22.80;96.10
66710;DHT22;53624;0.000;0.000;2022-10-16T15:48:55;22.80;96.20
66710;DHT22;53624;0.000;0.000;2022-10-16T15:51:24;22.80;96.20
66710;DHT22;53624;0.000;0.000;2022-10-16T15:53:53;22.70;96.30
66710;DHT22;53624;0.000;0.000;2022-10-16T15:56:22;22.70;96.50
66710;DHT22;53624;0.000;0.000;2022-10-16T15:58:51;22.70;96.50
66710;DHT22;53624;0.000;0.000;2022-10-16T16:01:19;22.60;96.50
66710;DHT22;53624;0.000;0.000;2022-10-16T16:03:47;22.60;96.70
66710;DHT22;53624;0.000;0.000;2022-10-16T16:06:14;22.60;96.80
66710;DHT22;53624;0.000;0.000;2022-10-16T16:08:42;22.60;96.70
66710;DHT22;53624;0.000;0.000;2022-10-16T16:11:10;22.60;96.70